LSPD weather

Dittingen Airport
Canton of Basel-Country, Switzerland

Public forecast

Using degrees Celsius for public forecast. Weather courtesy of forecast.io.

METAR (pilot weather report)

Closest report is EuroAirport Basel-Mulhouse-Freiburg Airport, 9.2 nm (17.1 km) N. Retrieved 2019/09/16 15:30 UTC (0 seconds ago):

LFSB 161530Z 29007KT 250V320 9999 FEW053 SCT260 29/15 Q1018 NOSIG

TAF (pilot weather forecast)

Closest forecast is EuroAirport Basel-Mulhouse-Freiburg Airport, 9.2 nm (17.1 km) N. Retrieved 2019/09/16 12:42 UTC (2 hours ago):

TAF LFSB 161100Z 1612/1712 29005KT CAVOK